sensor_id;sensor_type;location;lat;lon;timestamp;noise_LAeq;noise_LA_min;noise_LA_max;noise_LA01;noise_LA95
43938;Laerm;71382;47.750;10.226;2024-02-28T00:02:09;51.81;51.16;52.88;;
43938;Laerm;71382;47.750;10.226;2024-02-28T00:04:34;51.88;51.34;52.96;;
43938;Laerm;71382;47.750;10.226;2024-02-28T00:07:00;51.81;51.21;52.59;;
43938;Laerm;71382;47.750;10.226;2024-02-28T00:09:25;51.79;51.25;53.78;;
43938;Laerm;71382;47.750;10.226;2024-02-28T00:11:51;51.70;51.10;52.28;;
43938;Laerm;71382;47.750;10.226;2024-02-28T00:14:17;51.76;51.23;52.38;;
43938;Laerm;71382;47.750;10.226;2024-02-28T00:16:43;51.75;51.22;52.25;;
43938;Laerm;71382;47.750;10.226;2024-02-28T00:19:09;51.82;51.12;52.34;;
43938;Laerm;71382;47.750;10.226;2024-02-28T00:21:34;51.88;51.36;52.44;;
43938;Laerm;71382;47.750;10.226;2024-02-28T00:24:00;51.86;51.33;52.42;;
43938;Laerm;71382;47.750;10.226;2024-02-28T00:26:25;51.92;51.30;56.34;;
43938;Laerm;71382;47.750;10.226;2024-02-28T00:28:51;51.91;51.36;52.48;;
43938;Laerm;71382;47.750;10.226;2024-02-28T00:31:17;51.94;51.35;52.49;;
43938;Laerm;71382;47.750;10.226;2024-02-28T00:33:42;51.84;50.57;52.42;;
43938;Laerm;71382;47.750;10.226;2024-02-28T00:36:08;50.10;48.84;52.17;;
43938;Laerm;71382;47.750;10.226;2024-02-28T00:38:33;49.62;48.92;50.48;;
43938;Laerm;71382;47.750;10.226;2024-02-28T00:40:59;51.15;49.81;51.80;;
43938;Laerm;71382;47.750;10.226;2024-02-28T00:43:24;51.12;50.56;51.70;;
43938;Laerm;71382;47.750;10.226;2024-02-28T00:45:50;51.26;50.62;51.96;;
43938;Laerm;71382;47.750;10.226;2024-02-28T00:48:16;51.17;50.48;51.75;;
43938;Laerm;71382;47.750;10.226;2024-02-28T00:50:41;50.24;47.82;51.33;;
43938;Laerm;71382;47.750;10.226;2024-02-28T00:53:07;48.17;47.37;48.83;;
43938;Laerm;71382;47.750;10.226;2024-02-28T00:55:32;48.23;47.61;48.79;;
43938;Laerm;71382;47.750;10.226;2024-02-28T00:57:58;48.51;47.83;49.19;;
43938;Laerm;71382;47.750;10.226;2024-02-28T01:00:24;48.79;48.00;54.70;;
43938;Laerm;71382;47.750;10.226;2024-02-28T01:02:49;48.82;48.18;49.45;;
43938;Laerm;71382;47.750;10.226;2024-02-28T01:05:15;48.89;48.34;49.48;;
43938;Laerm;71382;47.750;10.226;2024-02-28T01:07:40;48.86;48.25;49.40;;
43938;Laerm;71382;47.750;10.226;2024-02-28T01:10:06;48.90;48.33;49.47;;
43938;Laerm;71382;47.750;10.226;2024-02-28T01:12:32;48.87;48.26;49.39;;
43938;Laerm;71382;47.750;10.226;2024-02-28T01:14:58;48.48;47.27;51.35;;
43938;Laerm;71382;47.750;10.226;2024-02-28T01:17:23;47.49;45.63;49.64;;
43938;Laerm;71382;47.750;10.226;2024-02-28T01:19:49;47.17;45.95;49.75;;
43938;Laerm;71382;47.750;10.226;2024-02-28T01:22:14;44.19;39.43;46.96;;
43938;Laerm;71382;47.750;10.226;2024-02-28T01:24:40;39.92;38.84;41.16;;
43938;Laerm;71382;47.750;10.226;2024-02-28T01:27:06;41.64;39.06;45.71;;
43938;Laerm;71382;47.750;10.226;2024-02-28T01:29:31;43.70;42.27;51.16;;
43938;Laerm;71382;47.750;10.226;2024-02-28T01:31:58;42.96;42.41;43.78;;
43938;Laerm;71382;47.750;10.226;2024-02-28T01:34:23;42.98;42.31;43.56;;
43938;Laerm;71382;47.750;10.226;2024-02-28T01:36:49;43.07;42.29;47.99;;
43938;Laerm;71382;47.750;10.226;2024-02-28T01:39:14;43.36;42.70;44.04;;
43938;Laerm;71382;47.750;10.226;2024-02-28T01:41:40;43.48;42.88;44.08;;
43938;Laerm;71382;47.750;10.226;2024-02-28T01:44:08;43.79;43.17;44.67;;
43938;Laerm;71382;47.750;10.226;2024-02-28T01:46:34;44.20;43.47;44.94;;
43938;Laerm;71382;47.750;10.226;2024-02-28T01:49:00;44.47;43.83;50.20;;
43938;Laerm;71382;47.750;10.226;2024-02-28T01:51:26;45.00;43.97;54.28;;
43938;Laerm;71382;47.750;10.226;2024-02-28T01:53:55;44.76;44.00;48.74;;
43938;Laerm;71382;47.750;10.226;2024-02-28T01:56:22;44.57;43.99;45.13;;
43938;Laerm;71382;47.750;10.226;2024-02-28T01:58:49;45.12;44.36;46.11;;
43938;Laerm;71382;47.750;10.226;2024-02-28T02:01:15;45.10;44.51;45.84;;
43938;Laerm;71382;47.750;10.226;2024-02-28T02:03:45;45.18;44.52;45.84;;
43938;Laerm;71382;47.750;10.226;2024-02-28T02:06:11;45.08;44.34;45.70;;
43938;Laerm;71382;47.750;10.226;2024-02-28T02:08:37;45.08;43.74;47.96;;
43938;Laerm;71382;47.750;10.226;2024-02-28T02:11:03;43.76;43.20;44.28;;
43938;Laerm;71382;47.750;10.226;2024-02-28T02:13:29;43.79;43.09;44.39;;
43938;Laerm;71382;47.750;10.226;2024-02-28T02:15:55;43.85;43.30;44.42;;
43938;Laerm;71382;47.750;10.226;2024-02-28T02:18:20;43.79;43.03;44.27;;
43938;Laerm;71382;47.750;10.226;2024-02-28T02:20:46;43.81;43.20;44.37;;
43938;Laerm;71382;47.750;10.226;2024-02-28T02:23:14;43.94;43.17;44.57;;
43938;Laerm;71382;47.750;10.226;2024-02-28T02:25:47;43.81;43.29;44.39;;
43938;Laerm;71382;47.750;10.226;2024-02-28T02:28:13;43.70;43.19;44.59;;
43938;Laerm;71382;47.750;10.226;2024-02-28T02:30:38;43.76;43.13;44.36;;
43938;Laerm;71382;47.750;10.226;2024-02-28T02:33:05;43.99;43.31;44.62;;
43938;Laerm;71382;47.750;10.226;2024-02-28T02:35:30;44.11;43.53;44.62;;
43938;Laerm;71382;47.750;10.226;2024-02-28T02:37:56;44.23;43.61;44.91;;
43938;Laerm;71382;47.750;10.226;2024-02-28T02:40:22;47.88;43.91;63.69;;
43938;Laerm;71382;47.750;10.226;2024-02-28T02:42:48;44.35;43.80;44.91;;
43938;Laerm;71382;47.750;10.226;2024-02-28T02:45:14;44.49;43.86;45.16;;
43938;Laerm;71382;47.750;10.226;2024-02-28T02:47:39;44.46;43.79;45.20;;
43938;Laerm;71382;47.750;10.226;2024-02-28T02:50:05;44.41;43.75;45.00;;
43938;Laerm;71382;47.750;10.226;2024-02-28T02:52:32;44.44;43.75;44.95;;
43938;Laerm;71382;47.750;10.226;2024-02-28T02:54:57;44.33;43.77;44.87;;
43938;Laerm;71382;47.750;10.226;2024-02-28T02:57:23;44.36;43.83;45.04;;
43938;Laerm;71382;47.750;10.226;2024-02-28T02:59:48;44.39;43.79;45.01;;
43938;Laerm;71382;47.750;10.226;2024-02-28T03:02:14;44.47;43.80;44.94;;
43938;Laerm;71382;47.750;10.226;2024-02-28T03:04:40;44.41;43.87;44.97;;
43938;Laerm;71382;47.750;10.226;2024-02-28T03:07:05;44.55;44.02;45.15;;
43938;Laerm;71382;47.750;10.226;2024-02-28T03:09:31;44.90;43.90;51.71;;
43938;Laerm;71382;47.750;10.226;2024-02-28T03:11:56;43.75;42.81;48.61;;
43938;Laerm;71382;47.750;10.226;2024-02-28T03:14:22;43.62;43.09;44.21;;
43938;Laerm;71382;47.750;10.226;2024-02-28T03:16:47;43.74;42.98;45.53;;
43938;Laerm;71382;47.750;10.226;2024-02-28T03:19:14;44.03;43.16;50.13;;
43938;Laerm;71382;47.750;10.226;2024-02-28T03:21:40;44.48;43.29;45.32;;
43938;Laerm;71382;47.750;10.226;2024-02-28T03:24:06;44.69;43.33;49.02;;
43938;Laerm;71382;47.750;10.226;2024-02-28T03:26:32;44.34;43.35;52.08;;
43938;Laerm;71382;47.750;10.226;2024-02-28T03:28:58;44.59;43.34;47.05;;
43938;Laerm;71382;47.750;10.226;2024-02-28T03:31:26;44.77;42.87;46.77;;
43938;Laerm;71382;47.750;10.226;2024-02-28T03:33:52;43.54;42.91;44.12;;
43938;Laerm;71382;47.750;10.226;2024-02-28T03:36:17;43.87;42.93;48.26;;
43938;Laerm;71382;47.750;10.226;2024-02-28T03:38:43;44.13;43.20;49.71;;
43938;Laerm;71382;47.750;10.226;2024-02-28T03:41:09;43.90;43.14;44.55;;
43938;Laerm;71382;47.750;10.226;2024-02-28T03:43:35;43.42;42.83;44.06;;
43938;Laerm;71382;47.750;10.226;2024-02-28T03:46:00;43.44;42.80;44.19;;
43938;Laerm;71382;47.750;10.226;2024-02-28T03:48:26;43.61;42.83;44.28;;
43938;Laerm;71382;47.750;10.226;2024-02-28T03:50:52;43.85;42.87;49.36;;
43938;Laerm;71382;47.750;10.226;2024-02-28T03:53:17;43.74;42.88;48.41;;
43938;Laerm;71382;47.750;10.226;2024-02-28T03:55:43;43.85;42.81;48.38;;
43938;Laerm;71382;47.750;10.226;2024-02-28T03:58:11;43.71;42.65;48.12;;
43938;Laerm;71382;47.750;10.226;2024-02-28T04:00:37;44.06;42.92;50.05;;
43938;Laerm;71382;47.750;10.226;2024-02-28T04:03:03;44.13;43.24;47.37;;
43938;Laerm;71382;47.750;10.226;2024-02-28T04:05:29;45.03;43.69;49.60;;
43938;Laerm;71382;47.750;10.226;2024-02-28T04:07:54;44.65;43.55;51.97;;
43938;Laerm;71382;47.750;10.226;2024-02-28T04:10:20;44.18;43.63;44.75;;
43938;Laerm;71382;47.750;10.226;2024-02-28T04:12:46;44.08;43.43;44.64;;
43938;Laerm;71382;47.750;10.226;2024-02-28T04:15:11;44.09;43.59;44.64;;
43938;Laerm;71382;47.750;10.226;2024-02-28T04:17:38;44.55;43.62;50.03;;
43938;Laerm;71382;47.750;10.226;2024-02-28T04:20:07;44.15;43.58;44.72;;
43938;Laerm;71382;47.750;10.226;2024-02-28T04:22:33;44.22;43.62;45.81;;
43938;Laerm;71382;47.750;10.226;2024-02-28T04:24:59;44.21;43.42;47.03;;
43938;Laerm;71382;47.750;10.226;2024-02-28T04:27:24;44.97;43.64;51.93;;
43938;Laerm;71382;47.750;10.226;2024-02-28T04:29:50;44.37;43.47;48.11;;
43938;Laerm;71382;47.750;10.226;2024-02-28T04:32:15;44.08;43.28;51.17;;
43938;Laerm;71382;47.750;10.226;2024-02-28T04:34:41;44.28;43.37;50.96;;
43938;Laerm;71382;47.750;10.226;2024-02-28T04:37:07;44.47;43.52;49.49;;
43938;Laerm;71382;47.750;10.226;2024-02-28T04:39:32;45.87;43.49;56.54;;
43938;Laerm;71382;47.750;10.226;2024-02-28T04:41:58;46.18;43.53;56.10;;
43938;Laerm;71382;47.750;10.226;2024-02-28T04:44:23;45.02;44.10;49.35;;
43938;Laerm;71382;47.750;10.226;2024-02-28T04:46:49;44.99;43.49;50.41;;
43938;Laerm;71382;47.750;10.226;2024-02-28T04:49:14;44.98;43.40;54.43;;
43938;Laerm;71382;47.750;10.226;2024-02-28T04:51:40;45.24;43.73;50.58;;
43938;Laerm;71382;47.750;10.226;2024-02-28T04:54:06;44.61;43.67;49.47;;
43938;Laerm;71382;47.750;10.226;2024-02-28T04:56:31;45.26;43.98;54.59;;
43938;Laerm;71382;47.750;10.226;2024-02-28T04:58:57;46.14;43.98;58.89;;
43938;Laerm;71382;47.750;10.226;2024-02-28T05:01:22;47.21;44.34;56.82;;
43938;Laerm;71382;47.750;10.226;2024-02-28T05:03:48;46.03;44.68;51.03;;
43938;Laerm;71382;47.750;10.226;2024-02-28T05:06:14;45.51;43.93;49.96;;
43938;Laerm;71382;47.750;10.226;2024-02-28T05:08:39;45.26;43.70;50.25;;
43938;Laerm;71382;47.750;10.226;2024-02-28T05:11:05;45.75;43.96;49.81;;
43938;Laerm;71382;47.750;10.226;2024-02-28T05:13:31;45.58;44.07;50.96;;
43938;Laerm;71382;47.750;10.226;2024-02-28T05:15:56;46.33;43.76;52.91;;
43938;Laerm;71382;47.750;10.226;2024-02-28T05:18:22;45.09;43.54;51.15;;
43938;Laerm;71382;47.750;10.226;2024-02-28T05:20:47;47.96;43.91;63.17;;
43938;Laerm;71382;47.750;10.226;2024-02-28T05:23:13;46.59;43.87;52.52;;
43938;Laerm;71382;47.750;10.226;2024-02-28T05:25:38;44.99;43.70;48.12;;
43938;Laerm;71382;47.750;10.226;2024-02-28T05:28:04;46.15;44.23;51.52;;
43938;Laerm;71382;47.750;10.226;2024-02-28T05:30:30;46.11;44.28;49.48;;
43938;Laerm;71382;47.750;10.226;2024-02-28T05:32:56;45.81;44.26;50.38;;
43938;Laerm;71382;47.750;10.226;2024-02-28T05:35:21;45.32;43.72;49.85;;
43938;Laerm;71382;47.750;10.226;2024-02-28T05:37:47;48.00;43.71;59.78;;
43938;Laerm;71382;47.750;10.226;2024-02-28T05:40:12;45.97;43.74;53.83;;
43938;Laerm;71382;47.750;10.226;2024-02-28T05:42:38;46.04;43.74;52.89;;
43938;Laerm;71382;47.750;10.226;2024-02-28T05:45:05;45.88;43.96;51.10;;
43938;Laerm;71382;47.750;10.226;2024-02-28T05:47:31;46.40;43.95;51.79;;
43938;Laerm;71382;47.750;10.226;2024-02-28T05:49:56;45.56;43.47;51.74;;
43938;Laerm;71382;47.750;10.226;2024-02-28T05:52:24;45.05;43.36;52.00;;
43938;Laerm;71382;47.750;10.226;2024-02-28T05:54:50;46.17;43.71;51.54;;
43938;Laerm;71382;47.750;10.226;2024-02-28T05:57:16;45.83;43.65;51.96;;
43938;Laerm;71382;47.750;10.226;2024-02-28T05:59:42;47.57;44.29;53.17;;
43938;Laerm;71382;47.750;10.226;2024-02-28T06:02:08;46.78;44.06;51.90;;
43938;Laerm;71382;47.750;10.226;2024-02-28T06:04:33;47.09;43.99;52.62;;
43938;Laerm;71382;47.750;10.226;2024-02-28T06:06:59;46.55;43.92;52.53;;
43938;Laerm;71382;47.750;10.226;2024-02-28T06:09:25;46.46;44.07;54.73;;
43938;Laerm;71382;47.750;10.226;2024-02-28T06:11:52;46.69;43.97;51.89;;
43938;Laerm;71382;47.750;10.226;2024-02-28T06:14:18;46.22;43.60;52.83;;
43938;Laerm;71382;47.750;10.226;2024-02-28T06:16:47;46.67;43.79;51.91;;
43938;Laerm;71382;47.750;10.226;2024-02-28T06:19:13;47.86;44.10;55.29;;
43938;Laerm;71382;47.750;10.226;2024-02-28T06:21:38;46.01;43.82;51.84;;
43938;Laerm;71382;47.750;10.226;2024-02-28T06:24:04;47.16;44.19;60.66;;
43938;Laerm;71382;47.750;10.226;2024-02-28T06:26:30;46.80;44.13;56.17;;
43938;Laerm;71382;47.750;10.226;2024-02-28T06:28:57;48.71;44.69;63.55;;
43938;Laerm;71382;47.750;10.226;2024-02-28T06:31:27;47.15;44.50;52.00;;
43938;Laerm;71382;47.750;10.226;2024-02-28T06:33:55;46.69;44.04;53.84;;
43938;Laerm;71382;47.750;10.226;2024-02-28T06:36:20;47.44;44.26;55.22;;
43938;Laerm;71382;47.750;10.226;2024-02-28T06:38:46;47.71;44.24;56.18;;
43938;Laerm;71382;47.750;10.226;2024-02-28T06:41:11;47.37;45.14;52.19;;
43938;Laerm;71382;47.750;10.226;2024-02-28T06:43:37;47.57;44.78;61.50;;
43938;Laerm;71382;47.750;10.226;2024-02-28T06:46:03;47.35;44.92;62.23;;
43938;Laerm;71382;47.750;10.226;2024-02-28T06:48:29;47.18;44.59;61.46;;
43938;Laerm;71382;47.750;10.226;2024-02-28T06:50:55;47.03;44.94;57.53;;
43938;Laerm;71382;47.750;10.226;2024-02-28T06:53:20;48.43;45.07;64.21;;
43938;Laerm;71382;47.750;10.226;2024-02-28T06:55:46;47.09;45.05;56.72;;
43938;Laerm;71382;47.750;10.226;2024-02-28T06:58:14;47.62;45.01;60.21;;
43938;Laerm;71382;47.750;10.226;2024-02-28T07:00:39;47.55;44.92;58.33;;
43938;Laerm;71382;47.750;10.226;2024-02-28T07:03:05;47.87;44.88;59.50;;
43938;Laerm;71382;47.750;10.226;2024-02-28T07:05:31;47.56;44.15;58.98;;
43938;Laerm;71382;47.750;10.226;2024-02-28T07:07:56;46.32;44.06;56.53;;
43938;Laerm;71382;47.750;10.226;2024-02-28T07:10:22;46.33;44.37;53.76;;
43938;Laerm;71382;47.750;10.226;2024-02-28T07:12:48;47.14;44.44;59.17;;
43938;Laerm;71382;47.750;10.226;2024-02-28T07:15:14;47.42;43.70;60.53;;
43938;Laerm;71382;47.750;10.226;2024-02-28T07:17:40;45.86;39.02;60.32;;
43938;Laerm;71382;47.750;10.226;2024-02-28T07:20:05;46.56;40.23;60.34;;
43938;Laerm;71382;47.750;10.226;2024-02-28T07:22:32;50.62;39.80;60.28;;
43938;Laerm;71382;47.750;10.226;2024-02-28T07:24:57;45.03;38.44;53.17;;
43938;Laerm;71382;47.750;10.226;2024-02-28T07:27:23;46.61;42.80;53.87;;
43938;Laerm;71382;47.750;10.226;2024-02-28T07:29:49;45.37;37.94;58.20;;
43938;Laerm;71382;47.750;10.226;2024-02-28T07:32:15;45.60;38.07;66.05;;
43938;Laerm;71382;47.750;10.226;2024-02-28T07:34:41;45.61;38.46;57.50;;
43938;Laerm;71382;47.750;10.226;2024-02-28T07:37:07;44.68;38.36;60.25;;
43938;Laerm;71382;47.750;10.226;2024-02-28T07:39:33;43.56;37.81;54.35;;
43938;Laerm;71382;47.750;10.226;2024-02-28T07:41:59;44.67;38.86;51.91;;
43938;Laerm;71382;47.750;10.226;2024-02-28T07:44:30;46.98;39.09;64.38;;
43938;Laerm;71382;47.750;10.226;2024-02-28T07:46:59;45.17;38.51;61.75;;
43938;Laerm;71382;47.750;10.226;2024-02-28T07:49:25;46.74;37.76;63.18;;
43938;Laerm;71382;47.750;10.226;2024-02-28T07:51:51;45.11;37.96;60.81;;
43938;Laerm;71382;47.750;10.226;2024-02-28T07:54:16;46.29;38.80;57.68;;
43938;Laerm;71382;47.750;10.226;2024-02-28T07:56:43;44.76;38.09;56.72;;
43938;Laerm;71382;47.750;10.226;2024-02-28T07:59:09;42.86;37.41;51.14;;
43938;Laerm;71382;47.750;10.226;2024-02-28T08:01:34;41.66;37.34;53.72;;
43938;Laerm;71382;47.750;10.226;2024-02-28T08:04:00;41.78;36.91;49.84;;
43938;Laerm;71382;47.750;10.226;2024-02-28T08:06:27;41.43;37.07;50.17;;
43938;Laerm;71382;47.750;10.226;2024-02-28T08:08:53;42.88;37.59;48.86;;
43938;Laerm;71382;47.750;10.226;2024-02-28T08:11:18;40.31;37.07;44.52;;
43938;Laerm;71382;47.750;10.226;2024-02-28T08:13:44;41.19;36.52;48.39;;
43938;Laerm;71382;47.750;10.226;2024-02-28T08:16:10;42.79;36.68;52.43;;
43938;Laerm;71382;47.750;10.226;2024-02-28T08:18:35;43.75;38.95;50.13;;
43938;Laerm;71382;47.750;10.226;2024-02-28T08:21:01;43.17;39.01;49.64;;
43938;Laerm;71382;47.750;10.226;2024-02-28T08:23:31;43.67;37.82;50.71;;
43938;Laerm;71382;47.750;10.226;2024-02-28T08:25:56;46.19;38.46;60.58;;
43938;Laerm;71382;47.750;10.226;2024-02-28T08:28:22;46.28;38.38;58.49;;
43938;Laerm;71382;47.750;10.226;2024-02-28T08:30:48;44.15;39.46;51.13;;
43938;Laerm;71382;47.750;10.226;2024-02-28T08:33:13;43.08;38.57;52.54;;
43938;Laerm;71382;47.750;10.226;2024-02-28T08:35:39;44.20;38.16;53.62;;
43938;Laerm;71382;47.750;10.226;2024-02-28T08:38:05;44.19;38.53;57.65;;
43938;Laerm;71382;47.750;10.226;2024-02-28T08:40:30;48.80;39.09;61.77;;
43938;Laerm;71382;47.750;10.226;2024-02-28T08:42:56;44.25;38.35;56.86;;
43938;Laerm;71382;47.750;10.226;2024-02-28T08:45:22;43.75;38.60;59.31;;
43938;Laerm;71382;47.750;10.226;2024-02-28T08:47:48;44.52;38.49;59.63;;
43938;Laerm;71382;47.750;10.226;2024-02-28T08:50:13;46.37;40.21;50.88;;
43938;Laerm;71382;47.750;10.226;2024-02-28T08:52:39;46.62;43.57;54.23;;
43938;Laerm;71382;47.750;10.226;2024-02-28T08:55:04;47.72;43.90;56.23;;
43938;Laerm;71382;47.750;10.226;2024-02-28T08:57:30;47.50;44.37;55.48;;
43938;Laerm;71382;47.750;10.226;2024-02-28T08:59:56;46.73;44.26;50.60;;
43938;Laerm;71382;47.750;10.226;2024-02-28T09:02:21;46.64;42.86;51.56;;
43938;Laerm;71382;47.750;10.226;2024-02-28T09:04:47;43.75;38.67;55.51;;
43938;Laerm;71382;47.750;10.226;2024-02-28T09:07:17;44.22;38.64;53.38;;
43938;Laerm;71382;47.750;10.226;2024-02-28T09:09:45;43.31;39.28;51.27;;
43938;Laerm;71382;47.750;10.226;2024-02-28T09:12:11;43.88;38.71;59.42;;
43938;Laerm;71382;47.750;10.226;2024-02-28T09:14:36;45.07;38.93;52.94;;
43938;Laerm;71382;47.750;10.226;2024-02-28T09:17:02;44.27;39.77;50.49;;
43938;Laerm;71382;47.750;10.226;2024-02-28T09:19:30;43.29;39.10;56.54;;
43938;Laerm;71382;47.750;10.226;2024-02-28T09:21:56;45.90;39.23;55.57;;
43938;Laerm;71382;47.750;10.226;2024-02-28T09:24:25;44.34;39.31;50.42;;
43938;Laerm;71382;47.750;10.226;2024-02-28T09:26:51;45.06;39.37;51.90;;
43938;Laerm;71382;47.750;10.226;2024-02-28T09:29:17;42.99;38.57;50.15;;
43938;Laerm;71382;47.750;10.226;2024-02-28T09:31:42;45.76;39.00;54.41;;
43938;Laerm;71382;47.750;10.226;2024-02-28T09:34:08;46.60;40.55;55.93;;
43938;Laerm;71382;47.750;10.226;2024-02-28T09:36:44;47.11;40.56;54.24;;
43938;Laerm;71382;47.750;10.226;2024-02-28T09:39:14;46.62;44.07;57.77;;
43938;Laerm;71382;47.750;10.226;2024-02-28T09:41:42;46.94;44.17;55.99;;
43938;Laerm;71382;47.750;10.226;2024-02-28T09:44:07;46.24;44.28;55.06;;
43938;Laerm;71382;47.750;10.226;2024-02-28T09:46:33;47.33;44.18;54.76;;
43938;Laerm;71382;47.750;10.226;2024-02-28T09:49:05;46.90;43.77;51.28;;
43938;Laerm;71382;47.750;10.226;2024-02-28T09:51:34;46.72;44.07;53.29;;
43938;Laerm;71382;47.750;10.226;2024-02-28T09:54:01;47.03;43.93;53.74;;
43938;Laerm;71382;47.750;10.226;2024-02-28T09:56:27;49.16;40.60;62.71;;
43938;Laerm;71382;47.750;10.226;2024-02-28T09:58:54;49.65;40.57;61.64;;
43938;Laerm;71382;47.750;10.226;2024-02-28T10:01:21;46.42;40.04;54.03;;
43938;Laerm;71382;47.750;10.226;2024-02-28T10:03:47;44.94;40.07;52.70;;
43938;Laerm;71382;47.750;10.226;2024-02-28T10:06:14;49.99;38.79;63.08;;
43938;Laerm;71382;47.750;10.226;2024-02-28T10:08:41;46.35;38.96;57.72;;
43938;Laerm;71382;47.750;10.226;2024-02-28T10:11:06;46.43;38.96;60.26;;
43938;Laerm;71382;47.750;10.226;2024-02-28T10:13:32;46.44;38.93;52.77;;
43938;Laerm;71382;47.750;10.226;2024-02-28T10:15:57;41.86;37.18;52.10;;
43938;Laerm;71382;47.750;10.226;2024-02-28T10:18:25;45.87;37.79;58.86;;
43938;Laerm;71382;47.750;10.226;2024-02-28T10:20:50;44.11;37.44;53.35;;
43938;Laerm;71382;47.750;10.226;2024-02-28T10:23:16;42.46;37.01;55.39;;
43938;Laerm;71382;47.750;10.226;2024-02-28T10:25:45;43.64;38.78;59.74;;
43938;Laerm;71382;47.750;10.226;2024-02-28T10:28:11;46.42;38.12;65.21;;
43938;Laerm;71382;47.750;10.226;2024-02-28T10:30:39;42.41;37.39;50.75;;
43938;Laerm;71382;47.750;10.226;2024-02-28T10:33:09;43.70;37.64;55.46;;
43938;Laerm;71382;47.750;10.226;2024-02-28T10:35:34;45.36;39.30;52.80;;
43938;Laerm;71382;47.750;10.226;2024-02-28T10:38:01;44.55;38.41;56.11;;
43938;Laerm;71382;47.750;10.226;2024-02-28T10:40:26;47.39;37.40;59.13;;
43938;Laerm;71382;47.750;10.226;2024-02-28T10:42:52;44.44;39.46;56.19;;
43938;Laerm;71382;47.750;10.226;2024-02-28T10:45:18;47.93;39.53;62.32;;
43938;Laerm;71382;47.750;10.226;2024-02-28T10:47:49;47.83;43.30;65.02;;
43938;Laerm;71382;47.750;10.226;2024-02-28T10:50:15;53.06;43.78;76.74;;
43938;Laerm;71382;47.750;10.226;2024-02-28T10:52:43;47.27;43.14;60.82;;
43938;Laerm;71382;47.750;10.226;2024-02-28T10:55:12;47.13;43.35;61.49;;
43938;Laerm;71382;47.750;10.226;2024-02-28T10:57:39;48.20;43.66;59.53;;
43938;Laerm;71382;47.750;10.226;2024-02-28T11:00:04;50.34;43.00;64.40;;
43938;Laerm;71382;47.750;10.226;2024-02-28T11:02:33;46.46;43.38;54.47;;
43938;Laerm;71382;47.750;10.226;2024-02-28T11:04:59;46.59;43.18;54.11;;
43938;Laerm;71382;47.750;10.226;2024-02-28T11:07:27;55.57;42.89;80.50;;
43938;Laerm;71382;47.750;10.226;2024-02-28T11:09:55;46.14;43.00;52.10;;
43938;Laerm;71382;47.750;10.226;2024-02-28T11:12:38;46.65;42.73;56.80;;
43938;Laerm;71382;47.750;10.226;2024-02-28T11:15:04;47.24;43.36;57.63;;
43938;Laerm;71382;47.750;10.226;2024-02-28T11:17:32;46.26;42.89;54.34;;
43938;Laerm;71382;47.750;10.226;2024-02-28T11:19:58;48.08;42.56;70.23;;
43938;Laerm;71382;47.750;10.226;2024-02-28T11:22:24;46.82;42.78;55.20;;
43938;Laerm;71382;47.750;10.226;2024-02-28T11:24:53;49.23;42.81;61.14;;
43938;Laerm;71382;47.750;10.226;2024-02-28T11:27:19;48.65;41.96;62.24;;
43938;Laerm;71382;47.750;10.226;2024-02-28T11:29:45;50.24;44.32;59.35;;
43938;Laerm;71382;47.750;10.226;2024-02-28T11:32:15;49.36;43.12;60.58;;
43938;Laerm;71382;47.750;10.226;2024-02-28T11:34:41;48.18;42.87;63.23;;
43938;Laerm;71382;47.750;10.226;2024-02-28T11:37:08;48.97;41.91;59.45;;
43938;Laerm;71382;47.750;10.226;2024-02-28T11:39:34;47.74;42.93;58.07;;
43938;Laerm;71382;47.750;10.226;2024-02-28T11:42:12;47.12;42.90;53.21;;
43938;Laerm;71382;47.750;10.226;2024-02-28T11:44:41;49.42;45.32;60.76;;
43938;Laerm;71382;47.750;10.226;2024-02-28T11:47:10;52.40;45.01;65.71;;
43938;Laerm;71382;47.750;10.226;2024-02-28T11:49:38;49.67;43.36;59.58;;
43938;Laerm;71382;47.750;10.226;2024-02-28T11:52:04;49.47;44.11;58.18;;
43938;Laerm;71382;47.750;10.226;2024-02-28T11:54:30;49.73;44.47;59.92;;
43938;Laerm;71382;47.750;10.226;2024-02-28T11:56:55;48.19;43.64;56.46;;
43938;Laerm;71382;47.750;10.226;2024-02-28T11:59:21;47.02;43.50;53.32;;
43938;Laerm;71382;47.750;10.226;2024-02-28T12:01:46;52.45;43.67;70.39;;
43938;Laerm;71382;47.750;10.226;2024-02-28T12:04:12;49.66;44.87;59.24;;
43938;Laerm;71382;47.750;10.226;2024-02-28T12:06:38;49.04;43.82;59.55;;
43938;Laerm;71382;47.750;10.226;2024-02-28T12:09:05;47.90;43.64;57.86;;
43938;Laerm;71382;47.750;10.226;2024-02-28T12:11:32;48.71;43.25;60.79;;
43938;Laerm;71382;47.750;10.226;2024-02-28T12:13:58;47.71;43.09;56.79;;
43938;Laerm;71382;47.750;10.226;2024-02-28T12:16:25;46.43;43.28;51.33;;
43938;Laerm;71382;47.750;10.226;2024-02-28T12:18:53;51.54;43.14;64.41;;
43938;Laerm;71382;47.750;10.226;2024-02-28T12:21:19;46.67;43.34;52.85;;
43938;Laerm;71382;47.750;10.226;2024-02-28T12:23:46;46.91;44.34;51.93;;
43938;Laerm;71382;47.750;10.226;2024-02-28T12:26:11;47.29;43.66;52.60;;
43938;Laerm;71382;47.750;10.226;2024-02-28T12:28:37;49.09;45.04;62.19;;
43938;Laerm;71382;47.750;10.226;2024-02-28T12:31:02;47.92;45.93;51.99;;
43938;Laerm;71382;47.750;10.226;2024-02-28T12:33:30;48.53;45.41;58.26;;
43938;Laerm;71382;47.750;10.226;2024-02-28T12:35:56;47.05;45.28;50.95;;
43938;Laerm;71382;47.750;10.226;2024-02-28T12:38:22;47.36;45.57;51.28;;
43938;Laerm;71382;47.750;10.226;2024-02-28T12:40:48;47.12;44.35;50.64;;
43938;Laerm;71382;47.750;10.226;2024-02-28T12:43:13;48.81;44.57;59.19;;
43938;Laerm;71382;47.750;10.226;2024-02-28T12:45:39;49.44;44.95;58.33;;
43938;Laerm;71382;47.750;10.226;2024-02-28T12:48:05;46.33;44.04;51.89;;
43938;Laerm;71382;47.750;10.226;2024-02-28T12:50:31;46.73;43.79;56.11;;
43938;Laerm;71382;47.750;10.226;2024-02-28T12:52:59;46.83;43.54;56.68;;
43938;Laerm;71382;47.750;10.226;2024-02-28T12:55:25;47.96;42.67;58.38;;
43938;Laerm;71382;47.750;10.226;2024-02-28T12:57:51;49.82;45.42;63.19;;
43938;Laerm;71382;47.750;10.226;2024-02-28T13:00:16;49.47;46.55;56.54;;
43938;Laerm;71382;47.750;10.226;2024-02-28T13:02:43;47.43;46.14;52.52;;
43938;Laerm;71382;47.750;10.226;2024-02-28T13:05:09;47.53;46.43;53.80;;
43938;Laerm;71382;47.750;10.226;2024-02-28T13:07:35;50.43;46.70;57.71;;
43938;Laerm;71382;47.750;10.226;2024-02-28T13:10:01;50.40;46.99;58.13;;
43938;Laerm;71382;47.750;10.226;2024-02-28T13:12:30;48.35;43.13;54.87;;
43938;Laerm;71382;47.750;10.226;2024-02-28T13:14:55;49.20;46.36;55.47;;
43938;Laerm;71382;47.750;10.226;2024-02-28T13:17:21;48.55;47.20;54.25;;
43938;Laerm;71382;47.750;10.226;2024-02-28T13:19:47;48.42;47.04;52.79;;
43938;Laerm;71382;47.750;10.226;2024-02-28T13:22:13;49.32;46.97;56.26;;
43938;Laerm;71382;47.750;10.226;2024-02-28T13:24:38;48.97;47.30;60.83;;
43938;Laerm;71382;47.750;10.226;2024-02-28T13:27:04;48.95;47.09;52.83;;